Terminal Aerodrome Forecast
Issued by NWS

Home | Current Version | Previous Version | Text Only | Print | Product List | Glossary On
Versions: 1 2 3 4 5 6 7 8 9 10 11 12 13 14 15 16
000
FTAK31 PAFA 211736
TAFAGA
TAF
PAGA 211736Z 2118/2218 VRB03KT P6SM SKC
     FM212200 09003KT P6SM FEW100 BKN200
     FM221000 05006KT 2SM -SN BR BKN050 OVC100
     FM221400 34004KT 1SM -SN BR BKN012 OVC025=

USA.gov is the U.S. government's official web portal to all federal, state and local government web resources and services.